createdAt,value
2017-08-12T00:00:52.524Z,3.13
2017-08-12T00:03:26.712Z,2.80
2017-08-12T00:06:00.936Z,3.37
2017-08-12T00:08:35.172Z,3.30
2017-08-12T00:11:09.445Z,3.30
2017-08-12T00:13:43.611Z,3.00
2017-08-12T00:16:17.852Z,2.80
2017-08-12T00:18:52.021Z,3.23
2017-08-12T00:21:26.227Z,3.37
2017-08-12T00:24:00.555Z,2.93
2017-08-12T00:26:34.696Z,3.07
2017-08-12T00:29:09.031Z,3.13
2017-08-12T00:31:43.301Z,3.60
2017-08-12T00:34:17.524Z,3.10
2017-08-12T00:36:51.655Z,3.17
2017-08-12T00:39:25.868Z,3.30
2017-08-12T00:42:00.036Z,3.40
2017-08-12T00:44:34.194Z,3.73
2017-08-12T00:47:08.499Z,3.80
2017-08-12T00:49:42.768Z,3.60
2017-08-12T00:52:17.016Z,3.20
2017-08-12T00:54:51.255Z,3.30
2017-08-12T00:57:25.568Z,3.30
2017-08-12T01:00:00.726Z,3.10
2017-08-12T01:02:34.863Z,3.20
2017-08-12T01:05:09.155Z,3.60
2017-08-12T01:07:43.372Z,3.00
2017-08-12T01:10:17.707Z,3.83
2017-08-12T01:12:52.015Z,3.90
2017-08-12T01:15:26.107Z,2.60
2017-08-12T01:18:00.336Z,3.10
2017-08-12T01:20:34.520Z,2.43
2017-08-12T01:23:08.899Z,3.20
2017-08-12T01:25:43.120Z,3.00
2017-08-12T01:28:17.306Z,3.03
2017-08-12T01:30:51.603Z,2.83
2017-08-12T01:33:25.657Z,3.10
2017-08-12T01:35:59.856Z,3.13
2017-08-12T01:38:34.009Z,2.70
2017-08-12T01:41:08.267Z,3.30
2017-08-12T01:43:42.627Z,2.90
2017-08-12T01:46:16.967Z,3.27
2017-08-12T01:48:51.111Z,3.00
2017-08-12T01:51:25.326Z,3.27
2017-08-12T01:53:59.353Z,3.00
2017-08-12T01:56:33.549Z,2.70
2017-08-12T01:59:07.708Z,2.93
2017-08-12T02:01:41.943Z,3.00
2017-08-12T02:04:16.207Z,2.97
2017-08-12T02:06:50.491Z,2.57
2017-08-12T02:09:24.789Z,2.83
2017-08-12T02:11:59.159Z,2.60
2017-08-12T02:14:33.263Z,3.13
2017-08-12T02:17:07.536Z,2.63
2017-08-12T02:19:41.696Z,2.67
2017-08-12T02:22:15.819Z,2.33
2017-08-12T02:24:50.077Z,2.63
2017-08-12T02:27:24.400Z,2.50
2017-08-12T02:29:58.614Z,2.53
2017-08-12T02:32:32.751Z,2.30
2017-08-12T02:35:07.020Z,2.50
2017-08-12T02:37:41.368Z,3.00
2017-08-12T02:40:15.660Z,2.60
2017-08-12T02:42:49.762Z,2.60
2017-08-12T02:45:24.108Z,2.87
2017-08-12T02:47:58.298Z,2.70
2017-08-12T02:50:32.639Z,2.70
2017-08-12T02:53:06.854Z,2.23
2017-08-12T02:55:41.159Z,2.50
2017-08-12T02:58:15.379Z,2.23
2017-08-12T03:00:49.505Z,2.57
2017-08-12T03:03:23.808Z,2.50
2017-08-12T03:05:58.144Z,2.43
2017-08-12T03:08:32.320Z,2.57
2017-08-12T03:11:06.631Z,2.50
2017-08-12T03:13:40.898Z,2.67
2017-08-12T03:16:14.987Z,2.37
2017-08-12T03:18:49.095Z,2.40
2017-08-12T03:21:23.460Z,2.20
2017-08-12T03:23:57.820Z,2.20
2017-08-12T03:26:32.083Z,2.10
2017-08-12T03:29:06.301Z,2.20
2017-08-12T03:31:40.496Z,2.80
2017-08-12T03:34:14.680Z,2.27
2017-08-12T03:36:48.932Z,2.70
2017-08-12T03:39:23.267Z,2.47
2017-08-12T03:41:57.599Z,2.17
2017-08-12T03:44:31.804Z,2.23
2017-08-12T03:47:05.884Z,2.27
2017-08-12T03:49:40.224Z,2.10
2017-08-12T03:52:14.491Z,2.00
2017-08-12T03:54:48.672Z,2.50
2017-08-12T03:57:22.889Z,2.13
2017-08-12T03:59:57.043Z,2.30
2017-08-12T04:02:32.580Z,1.90
2017-08-12T04:05:08.619Z,1.90
2017-08-12T04:07:43.554Z,2.00
2017-08-12T04:10:18.020Z,2.27
2017-08-12T04:12:52.385Z,1.90
2017-08-12T04:15:26.806Z,2.10
2017-08-12T04:18:01.432Z,2.43
2017-08-12T04:20:35.639Z,2.47
2017-08-12T04:23:09.983Z,2.40
2017-08-12T04:25:44.294Z,2.10
2017-08-12T04:28:18.733Z,2.33
2017-08-12T04:30:53.059Z,2.17
2017-08-12T04:33:27.468Z,2.00
2017-08-12T04:36:01.777Z,2.10
2017-08-12T04:38:36.135Z,1.90
2017-08-12T04:41:11.555Z,2.60
2017-08-12T04:43:45.878Z,2.40
2017-08-12T04:46:20.360Z,2.30
2017-08-12T04:48:54.678Z,2.23
2017-08-12T04:51:28.770Z,2.53
2017-08-12T04:54:02.879Z,2.20
2017-08-12T04:56:37.191Z,2.63
2017-08-12T04:59:11.308Z,2.60
2017-08-12T05:01:45.550Z,2.27
2017-08-12T05:04:19.759Z,2.30
2017-08-12T05:06:54.124Z,2.20
2017-08-12T05:09:28.274Z,2.67
2017-08-12T05:12:02.381Z,2.30
2017-08-12T05:14:36.451Z,2.17
2017-08-12T05:17:10.684Z,2.20
2017-08-12T05:19:45.034Z,2.07
2017-08-12T05:22:19.390Z,2.10
2017-08-12T05:24:53.804Z,2.40
2017-08-12T05:27:28.648Z,2.77
2017-08-12T05:30:02.971Z,2.20
2017-08-12T05:32:37.198Z,2.23
2017-08-12T05:35:11.487Z,2.03
2017-08-12T05:37:45.610Z,2.30
2017-08-12T05:40:19.807Z,2.30
2017-08-12T05:42:53.980Z,2.33
2017-08-12T05:45:28.185Z,2.33
2017-08-12T05:48:02.543Z,1.90
2017-08-12T05:50:36.772Z,2.10
2017-08-12T05:53:11.081Z,2.13
2017-08-12T05:55:45.379Z,1.87
2017-08-12T05:58:19.624Z,1.90
2017-08-12T06:00:53.964Z,2.17
2017-08-12T06:03:28.247Z,1.90
2017-08-12T06:06:02.547Z,2.00
2017-08-12T06:08:36.780Z,1.60
2017-08-12T06:11:10.976Z,1.70
2017-08-12T06:13:45.145Z,2.20
2017-08-12T06:16:19.439Z,1.73
2017-08-12T06:18:53.633Z,1.80
2017-08-12T06:21:27.733Z,1.60
2017-08-12T06:24:01.931Z,1.70
2017-08-12T06:26:36.031Z,1.80
2017-08-12T06:29:10.078Z,1.70
2017-08-12T06:31:44.293Z,1.73
2017-08-12T06:34:18.558Z,1.50
2017-08-12T06:36:52.845Z,1.50
2017-08-12T06:39:27.191Z,1.40
2017-08-12T06:42:01.411Z,1.40
2017-08-12T06:44:35.572Z,1.70
2017-08-12T06:47:09.841Z,1.60
2017-08-12T06:49:43.991Z,1.57
2017-08-12T06:52:18.272Z,1.50
2017-08-12T06:54:52.495Z,1.33
2017-08-12T06:57:27.136Z,1.50
2017-08-12T07:00:01.317Z,1.60
2017-08-12T07:02:35.592Z,1.60
2017-08-12T07:05:12.574Z,1.40
2017-08-12T07:07:46.875Z,2.73
2017-08-12T07:10:21.034Z,1.80
2017-08-12T07:12:55.315Z,1.70
2017-08-12T07:15:29.451Z,1.60
2017-08-12T07:18:03.682Z,1.73
2017-08-12T07:20:37.786Z,1.73
2017-08-12T07:23:12.011Z,1.83
2017-08-12T07:25:46.232Z,1.90
2017-08-12T07:28:20.498Z,1.80
2017-08-12T07:30:54.790Z,1.80
2017-08-12T07:33:29.064Z,3.63
2017-08-12T07:36:03.336Z,2.07
2017-08-12T07:38:37.675Z,1.93
2017-08-12T07:41:11.998Z,2.23
2017-08-12T07:43:46.172Z,2.20
2017-08-12T07:46:20.201Z,2.60
2017-08-12T07:48:54.561Z,2.37
2017-08-12T07:51:28.788Z,1.93
2017-08-12T07:54:03.112Z,2.20
2017-08-12T07:56:37.169Z,2.20
2017-08-12T07:59:11.418Z,2.20
2017-08-12T08:01:45.508Z,2.13
2017-08-12T08:04:19.575Z,1.90
2017-08-12T08:18:23.741Z,2.00
2017-08-12T08:20:57.980Z,2.30
2017-08-12T08:23:32.060Z,2.00
2017-08-12T08:34:42.823Z,1.80
2017-08-12T08:37:17.010Z,2.00
2017-08-12T08:39:51.192Z,2.60
2017-08-12T08:45:17.356Z,1.80
2017-08-12T08:47:51.615Z,2.00
2017-08-12T08:50:25.776Z,1.90
2017-08-12T08:53:00.166Z,2.20
2017-08-12T08:55:34.399Z,2.37
2017-08-12T08:58:08.540Z,1.93
2017-08-12T09:00:43.030Z,1.90
2017-08-12T09:03:17.279Z,2.20
2017-08-12T09:05:51.512Z,3.20
2017-08-12T09:14:10.280Z,1.73
2017-08-12T09:16:44.463Z,2.17
2017-08-12T09:19:18.727Z,1.90
2017-08-12T09:24:44.900Z,1.97
2017-08-12T09:27:19.276Z,1.80
2017-08-12T09:35:37.603Z,1.70
2017-08-12T09:38:11.735Z,2.20
2017-08-12T09:43:38.163Z,2.00
2017-08-12T09:46:12.331Z,2.30
2017-08-12T09:48:46.661Z,2.43
2017-08-12T09:59:57.723Z,2.30
2017-08-12T10:02:31.863Z,2.20
2017-08-12T10:05:06.040Z,2.17
2017-08-12T10:07:40.173Z,2.00
2017-08-12T10:10:14.479Z,1.73
2017-08-12T10:12:48.588Z,1.73
2017-08-12T10:15:22.765Z,1.83
2017-08-12T10:17:56.907Z,1.90
2017-08-12T10:20:31.076Z,2.10
2017-08-12T10:23:05.328Z,2.00
2017-08-12T10:25:39.492Z,2.10
2017-08-12T10:28:13.710Z,2.10
2017-08-12T10:30:47.944Z,2.43
2017-08-12T10:33:22.186Z,2.30
2017-08-12T10:35:56.832Z,2.30
2017-08-12T10:38:30.963Z,2.30
2017-08-12T10:41:05.089Z,2.40
2017-08-12T10:43:39.317Z,2.07
2017-08-12T10:46:13.589Z,2.30
2017-08-12T10:48:49.602Z,2.30
2017-08-12T10:51:23.724Z,2.10
2017-08-12T10:53:57.885Z,2.10
2017-08-12T10:56:32.068Z,2.10
2017-08-12T10:59:06.131Z,2.17
2017-08-12T11:01:40.239Z,2.00
2017-08-12T11:04:14.496Z,2.17
2017-08-12T11:06:48.778Z,2.20
2017-08-12T11:09:22.895Z,2.03
2017-08-12T11:11:56.909Z,2.10
2017-08-12T11:14:31.082Z,2.13
2017-08-12T11:17:05.271Z,1.93
2017-08-12T11:19:39.430Z,2.30
2017-08-12T11:25:06.343Z,2.07
2017-08-12T11:27:40.586Z,2.10
2017-08-12T11:30:14.828Z,2.27
2017-08-12T11:38:33.301Z,2.20
2017-08-12T11:41:07.484Z,2.10
2017-08-12T11:43:41.584Z,2.50
2017-08-12T11:46:15.803Z,2.40
2017-08-12T11:48:49.988Z,2.30
2017-08-12T11:57:08.733Z,2.30
2017-08-12T11:59:42.853Z,2.63
2017-08-12T12:02:17.278Z,2.30
2017-08-12T12:04:51.444Z,2.30
2017-08-12T12:07:25.610Z,2.53
2017-08-12T12:09:59.705Z,2.63
2017-08-12T12:12:35.084Z,3.03
2017-08-12T12:15:09.215Z,2.87
2017-08-12T12:17:43.431Z,2.60
2017-08-12T12:20:17.488Z,3.20
2017-08-12T12:22:51.740Z,2.57
2017-08-12T12:25:25.995Z,2.83
2017-08-12T12:28:00.245Z,3.07
2017-08-12T12:30:34.338Z,2.70
2017-08-12T12:33:08.512Z,3.03
2017-08-12T12:35:42.699Z,2.87
2017-08-12T12:38:17.060Z,3.13
2017-08-12T12:40:51.275Z,3.07
2017-08-12T12:43:25.595Z,2.80
2017-08-12T12:45:59.834Z,3.00
2017-08-12T12:48:34.072Z,3.10
2017-08-12T12:51:08.261Z,2.90
2017-08-12T12:53:42.451Z,3.20
2017-08-12T12:56:16.865Z,2.60
2017-08-12T12:58:50.915Z,3.20
2017-08-12T13:01:25.021Z,2.90
2017-08-12T13:03:59.238Z,3.00
2017-08-12T13:06:33.264Z,3.10
2017-08-12T13:09:07.489Z,2.77
2017-08-12T13:11:41.708Z,3.00
2017-08-12T13:14:15.986Z,2.73
2017-08-12T13:19:42.583Z,2.30
2017-08-12T13:25:09.379Z,2.73
2017-08-12T13:27:43.559Z,2.90
2017-08-12T13:30:17.699Z,3.10
2017-08-12T13:32:51.925Z,2.60
2017-08-12T13:35:26.016Z,2.90
2017-08-12T13:38:00.306Z,3.00
2017-08-12T13:43:26.401Z,3.23
2017-08-12T13:51:45.217Z,3.20
2017-08-12T13:54:19.297Z,2.80
2017-08-12T13:56:53.631Z,3.00
2017-08-12T13:59:27.919Z,3.20
2017-08-12T14:04:54.257Z,3.30
2017-08-12T14:07:28.632Z,3.23
2017-08-12T14:10:02.829Z,2.87
2017-08-12T14:32:43.467Z,3.03
2017-08-12T14:35:17.517Z,2.90
2017-08-12T14:40:43.800Z,2.87
2017-08-12T14:43:18.044Z,2.83
2017-08-12T14:45:52.294Z,2.83
2017-08-12T14:48:26.388Z,2.67
2017-08-12T14:51:00.581Z,3.13
2017-08-12T14:56:27.048Z,3.10
2017-08-12T14:59:01.122Z,2.87
2017-08-12T15:01:35.486Z,3.23
2017-08-12T15:04:09.891Z,2.83
2017-08-12T15:12:28.718Z,2.90
2017-08-12T15:15:03.030Z,3.63
2017-08-12T15:17:37.396Z,2.60
2017-08-12T15:20:11.544Z,3.20
2017-08-12T15:28:30.203Z,3.00
2017-08-12T15:31:04.514Z,3.10
2017-08-12T15:39:23.753Z,2.50
2017-08-12T15:41:57.916Z,2.70
2017-08-12T15:44:32.002Z,2.37
2017-08-12T15:47:06.209Z,2.67
2017-08-12T15:52:32.524Z,2.30
2017-08-12T15:55:06.757Z,2.60
2017-08-12T15:57:40.970Z,2.70
2017-08-12T16:00:29.441Z,2.70
2017-08-12T16:03:03.783Z,2.73
2017-08-12T16:05:38.038Z,2.33
2017-08-12T16:08:12.422Z,2.67
2017-08-12T16:10:46.605Z,2.50
2017-08-12T16:13:20.944Z,2.93
2017-08-12T16:15:55.125Z,2.80
2017-08-12T16:18:30.749Z,2.80
2017-08-12T16:21:05.104Z,3.00
2017-08-12T16:23:39.335Z,3.17
2017-08-12T16:26:13.758Z,2.77
2017-08-12T16:28:47.903Z,2.90
2017-08-12T16:31:22.074Z,3.00
2017-08-12T16:33:56.277Z,2.97
2017-08-12T16:36:30.479Z,3.20
2017-08-12T16:39:04.683Z,2.90
2017-08-12T16:41:38.814Z,2.60
2017-08-12T16:44:13.204Z,3.03
2017-08-12T16:46:47.415Z,3.20
2017-08-12T16:49:21.545Z,3.23
2017-08-12T16:51:55.836Z,3.37
2017-08-12T16:54:29.897Z,2.93
2017-08-12T16:57:03.978Z,2.77
2017-08-12T16:59:38.140Z,3.07
2017-08-12T17:02:12.327Z,2.90
2017-08-12T17:04:46.729Z,3.53
2017-08-12T17:07:21.059Z,3.00
2017-08-12T17:09:55.100Z,2.90
2017-08-12T17:12:29.360Z,3.60
2017-08-12T17:15:03.961Z,2.70
2017-08-12T17:17:38.001Z,3.40
2017-08-12T17:25:56.660Z,3.30
2017-08-12T17:28:31.057Z,4.20
2017-08-12T17:31:05.295Z,2.83
2017-08-12T17:39:23.774Z,6.30
2017-08-12T17:41:58.076Z,3.03
2017-08-12T17:44:32.266Z,2.73
2017-08-12T17:47:06.588Z,3.43
2017-08-12T17:49:40.958Z,3.23
2017-08-12T17:57:59.704Z,3.20
2017-08-12T18:00:33.759Z,2.97
2017-08-12T18:06:00.562Z,3.00
2017-08-12T18:08:34.617Z,3.00
2017-08-12T18:11:08.661Z,3.00
2017-08-12T18:16:34.748Z,3.40
2017-08-12T18:19:09.099Z,2.80
2017-08-12T18:21:43.413Z,3.30
2017-08-12T18:27:10.160Z,3.20
2017-08-12T18:29:44.530Z,3.50
2017-08-12T18:38:03.064Z,3.53
2017-08-12T18:40:37.213Z,3.30
2017-08-12T18:46:03.908Z,3.07
2017-08-12T18:48:38.141Z,3.20
2017-08-12T18:51:12.429Z,3.53
2017-08-12T18:53:46.683Z,2.70
2017-08-12T18:56:20.995Z,2.77
2017-08-12T19:01:47.804Z,3.03
2017-08-12T19:04:22.058Z,3.70
2017-08-12T19:06:56.499Z,2.80
2017-08-12T19:09:30.539Z,3.80
2017-08-12T19:12:04.712Z,3.77
2017-08-12T19:14:38.983Z,3.27
2017-08-12T19:17:13.268Z,3.40
2017-08-12T19:19:47.476Z,3.27
2017-08-12T19:22:21.615Z,3.23
2017-08-12T19:24:55.785Z,3.43
2017-08-12T19:27:30.048Z,3.30
2017-08-12T19:30:04.308Z,3.30
2017-08-12T19:32:38.593Z,3.87
2017-08-12T19:35:12.770Z,3.00
2017-08-12T19:37:46.932Z,3.10
2017-08-12T19:40:21.241Z,3.47
2017-08-12T19:42:55.466Z,2.93
2017-08-12T19:45:29.528Z,3.53
2017-08-12T19:48:03.757Z,3.20
2017-08-12T19:50:37.967Z,3.50
2017-08-12T19:53:12.220Z,3.20
2017-08-12T19:55:46.267Z,3.70
2017-08-12T19:58:20.455Z,3.57
2017-08-12T20:00:54.780Z,3.30
2017-08-12T20:03:29.148Z,2.97
2017-08-12T20:06:03.433Z,3.50
2017-08-12T20:08:37.809Z,3.90
2017-08-12T20:11:12.151Z,3.80
2017-08-12T20:13:46.419Z,3.73
2017-08-12T20:16:20.767Z,4.07
2017-08-12T20:18:54.988Z,3.73
2017-08-12T20:24:21.310Z,3.70
2017-08-12T20:29:47.615Z,4.30
2017-08-12T20:32:23.131Z,4.10
2017-08-12T20:35:03.592Z,3.80
2017-08-12T20:37:39.189Z,3.80
2017-08-12T20:40:15.657Z,3.80
2017-08-12T20:42:51.075Z,7.60
2017-08-12T20:48:17.381Z,4.30
2017-08-12T20:50:51.479Z,3.50
2017-08-12T21:02:02.837Z,5.43
2017-08-12T21:04:37.046Z,4.20
2017-08-12T21:07:11.440Z,7.97
2017-08-12T21:09:45.633Z,3.57
2017-08-12T21:15:12.400Z,5.20
2017-08-12T21:17:46.635Z,5.53
2017-08-12T21:20:20.978Z,3.60
2017-08-12T21:22:59.581Z,8.73
2017-08-12T21:25:33.810Z,3.87
2017-08-12T21:28:07.898Z,3.90
2017-08-12T21:36:26.868Z,3.30
2017-08-12T21:39:01.063Z,3.37
2017-08-12T21:41:35.351Z,4.17
2017-08-12T21:44:09.583Z,2.73
2017-08-12T21:46:43.952Z,3.47
2017-08-12T21:52:10.835Z,3.30
2017-08-12T21:54:45.058Z,3.07
2017-08-12T22:05:55.962Z,3.10
2017-08-12T22:08:30.027Z,3.03
2017-08-12T22:13:56.808Z,3.00
2017-08-12T22:16:31.165Z,3.27
2017-08-12T22:19:05.524Z,2.80
2017-08-12T22:24:31.927Z,3.37
2017-08-12T22:27:06.190Z,2.77
2017-08-12T22:29:40.311Z,3.43
2017-08-12T22:32:14.431Z,2.97
2017-08-12T22:34:48.632Z,3.43
2017-08-12T22:40:15.506Z,3.10
2017-08-12T22:42:49.757Z,2.90
2017-08-12T22:45:23.819Z,3.23
2017-08-12T22:50:50.511Z,3.13
2017-08-12T22:56:17.275Z,3.07
2017-08-12T22:58:51.655Z,3.83
2017-08-12T23:01:25.931Z,2.83
2017-08-12T23:04:00.177Z,3.50
2017-08-12T23:06:34.350Z,3.50
2017-08-12T23:09:08.564Z,3.17
2017-08-12T23:11:42.879Z,3.40
2017-08-12T23:14:17.020Z,3.70
2017-08-12T23:16:51.253Z,3.40
2017-08-12T23:19:25.452Z,3.77
2017-08-12T23:21:59.660Z,3.40
2017-08-12T23:24:33.839Z,4.20
2017-08-12T23:27:08.099Z,3.37
2017-08-12T23:29:42.296Z,3.20
2017-08-12T23:32:17.331Z,3.23
2017-08-12T23:34:51.621Z,3.27
2017-08-12T23:37:25.758Z,3.47
2017-08-12T23:39:59.792Z,4.40
2017-08-12T23:42:34.195Z,3.90
2017-08-12T23:45:08.496Z,3.33
2017-08-12T23:47:42.843Z,3.27
2017-08-12T23:50:17.025Z,3.80
2017-08-12T23:52:51.344Z,3.50
2017-08-12T23:55:25.685Z,3.70
2017-08-12T23:57:59.860Z,3.57
